Time;durP1;ratioP1;P1;durP2;ratioP2;P2;SDS_P1;SDS_P2;PMS_P1;PMS_P2;Temp;Humidity;BMP_temperature;BMP_pressure;BME280_temperature;BME280_humidity;BME280_pressure;Samples;Min_cycle;Max_cycle;Signal;HPM_P1;HPM_P2
2022/11/13 00:02:34;;;;;;;29.17;20.48;;;;;;;5.21;100.00;102935.47;5016357;28;20057;-85
2022/11/13 00:05:21;;;;;;;21.30;17.63;;;;;;;5.23;100.00;102943.41;4996936;28;20041;-85
2022/11/13 00:08:09;;;;;;;21.38;17.15;;;;;;;5.24;100.00;102932.16;5012833;28;20286;-85
2022/11/13 00:11:10;;;;;;;21.00;16.33;;;;;;;5.27;100.00;102928.03;5007958;28;20510;-86
2022/11/13 00:13:57;;;;;;;21.77;15.60;;;;;;;5.28;100.00;102931.53;5007635;28;20051;-84
2022/11/13 00:16:44;;;;;;;21.55;17.02;;;;;;;5.29;100.00;102920.25;5046134;28;20398;-85
2022/11/13 00:19:31;;;;;;;19.92;16.40;;;;;;;5.29;100.00;102935.94;5020372;28;20050;-84
2022/11/13 00:22:18;;;;;;;20.13;15.45;;;;;;;5.29;100.00;102920.25;5016149;28;21912;-86
2022/11/13 00:25:05;;;;;;;19.33;15.73;;;;;;;5.28;100.00;102914.13;5005396;28;20052;-85
2022/11/13 00:27:52;;;;;;;22.90;16.88;;;;;;;5.30;100.00;102914.22;5014754;28;20049;-85
2022/11/13 00:30:40;;;;;;;19.17;17.02;;;;;;;5.31;100.00;102920.34;5019087;28;20037;-85
2022/11/13 00:33:27;;;;;;;25.60;18.55;;;;;;;5.34;100.00;102916.19;5015500;28;20029;-85
2022/11/13 00:36:34;;;;;;;30.13;21.67;;;;;;;5.40;100.00;102919.16;5033347;28;20052;-85
2022/11/13 00:39:21;;;;;;;26.70;19.67;;;;;;;5.49;100.00;102921.41;5012537;28;20053;-84
2022/11/13 00:42:08;;;;;;;24.15;18.90;;;;;;;5.56;100.00;102918.34;5023029;28;20045;-86
2022/11/13 00:44:56;;;;;;;23.58;18.05;;;;;;;5.60;100.00;102914.19;4996200;28;20042;-87
2022/11/13 00:47:43;;;;;;;24.55;18.83;;;;;;;5.62;100.00;102912.53;5017205;28;20045;-88
2022/11/13 00:50:30;;;;;;;21.02;17.02;;;;;;;5.63;100.00;102911.72;5003821;28;20537;-86
2022/11/13 00:53:17;;;;;;;21.15;17.92;;;;;;;5.66;100.00;102914.50;5025017;28;20045;-87
2022/11/13 00:56:04;;;;;;;28.98;20.40;;;;;;;5.68;100.00;102907.66;5021406;28;20049;-86
2022/11/13 00:58:51;;;;;;;25.80;19.73;;;;;;;5.74;100.00;102901.88;5022787;28;20049;-87
2022/11/13 01:01:38;;;;;;;27.85;20.67;;;;;;;5.85;100.00;102899.03;5011595;28;20033;-87
2022/11/13 01:04:27;;;;;;;32.42;21.33;;;;;;;5.96;100.00;102894.41;5020601;28;20648;-86
2022/11/13 01:07:14;;;;;;;31.58;20.48;;;;;;;6.05;100.00;102896.66;5026701;28;20248;-87
2022/11/13 01:10:03;;;;;;;27.85;21.25;;;;;;;6.09;100.00;102890.75;5035264;28;20170;-86
2022/11/13 01:12:50;;;;;;;32.38;20.42;;;;;;;6.13;100.00;102897.97;5026155;28;20057;-86
2022/11/13 01:15:38;;;;;;;25.33;18.73;;;;;;;6.14;100.00;102893.63;5013812;28;20045;-87
2022/11/13 01:18:25;;;;;;;26.80;19.38;;;;;;;6.12;100.00;102896.13;5034362;28;20044;-86
2022/11/13 01:21:17;;;;;;;22.77;18.10;;;;;;;6.14;100.00;102891.88;5028051;28;20041;-85
2022/11/13 01:24:04;;;;;;;28.42;18.35;;;;;;;6.14;100.00;102881.41;5026474;28;20363;-85
2022/11/13 01:26:50;;;;;;;27.85;19.83;;;;;;;6.15;100.00;102875.38;5007926;28;20052;-84
2022/11/13 01:29:37;;;;;;;30.73;21.27;;;;;;;6.18;100.00;102875.56;5017214;28;20046;-85
2022/11/13 01:32:33;;;;;;;24.60;17.75;;;;;;;6.23;100.00;102868.81;5003911;28;20045;-85
2022/11/13 01:35:20;;;;;;;23.13;18.27;;;;;;;6.30;100.00;102877.03;5027508;28;20049;-85
2022/11/13 01:38:07;;;;;;;23.20;18.65;;;;;;;6.33;100.00;102870.25;5014229;28;20132;-85
2022/11/13 01:40:54;;;;;;;30.88;20.42;;;;;;;6.36;100.00;102859.00;4995834;28;20052;-86
2022/11/13 01:43:42;;;;;;;28.65;19.10;;;;;;;6.38;100.00;102860.88;5034569;28;20041;-86
2022/11/13 01:46:32;;;;;;;28.40;21.30;;;;;;;6.43;100.00;102853.28;5019714;28;20037;-86
2022/11/13 01:49:39;;;;;;;24.80;19.40;;;;;;;6.47;100.00;102851.72;5016631;28;20045;-85
2022/11/13 01:52:30;;;;;;;25.70;18.80;;;;;;;6.49;100.00;102852.72;5018907;28;20057;-85
2022/11/13 01:55:20;;;;;;;26.60;18.88;;;;;;;6.53;100.00;102831.97;5023170;28;20050;-85
2022/11/13 01:58:09;;;;;;;25.58;18.70;;;;;;;6.57;100.00;102825.19;5031225;28;20410;-85
2022/11/13 02:00:57;;;;;;;25.00;18.23;;;;;;;6.60;100.00;102834.09;5018858;28;20446;-86
2022/11/13 02:03:43;;;;;;;28.35;19.15;;;;;;;6.64;100.00;102814.19;5007047;28;20049;-84
2022/11/13 02:06:40;;;;;;;26.27;17.52;;;;;;;6.67;100.00;102818.69;5021814;28;20049;-85
2022/11/13 02:09:38;;;;;;;25.65;17.88;;;;;;;6.67;100.00;102816.06;5016537;28;20042;-85
2022/11/13 02:12:34;;;;;;;23.77;18.20;;;;;;;6.68;100.00;102817.88;5034169;28;20037;-85
2022/11/13 02:15:24;;;;;;;28.58;18.45;;;;;;;6.70;100.00;102813.59;5012032;28;20046;-85
2022/11/13 02:18:13;;;;;;;26.42;17.77;;;;;;;6.69;100.00;102810.09;5011555;28;20052;-86
2022/11/13 02:21:30;;;;;;;24.83;18.05;;;;;;;6.72;100.00;102802.38;5029245;28;20045;-85
2022/11/13 02:24:26;;;;;;;22.15;18.40;;;;;;;6.73;100.00;102805.88;5021938;28;20052;-85
2022/11/13 02:27:32;;;;;;;26.98;17.88;;;;;;;6.73;100.00;102801.56;5025443;28;20042;-85
2022/11/13 02:30:21;;;;;;;21.80;16.75;;;;;;;6.75;100.00;102806.88;5031843;28;20037;-85
2022/11/13 02:33:23;;;;;;;21.23;15.93;;;;;;;6.77;100.00;102797.38;5011851;28;20045;-85
2022/11/13 02:36:11;;;;;;;25.98;17.08;;;;;;;6.77;100.00;102802.63;5021391;28;20042;-85
2022/11/13 02:39:03;;;;;;;24.30;18.27;;;;;;;6.77;100.00;102802.63;5030607;28;20530;-85
2022/11/13 02:41:58;;;;;;;23.23;16.80;;;;;;;6.76;100.00;102793.84;5033260;28;20052;-84
2022/11/13 02:44:45;;;;;;;25.85;17.63;;;;;;;6.74;100.00;102787.63;5018379;28;20046;-86
2022/11/13 02:47:32;;;;;;;24.13;17.88;;;;;;;6.72;100.00;102775.28;5017003;28;20049;-86
2022/11/13 02:50:21;;;;;;;22.98;17.25;;;;;;;6.71;100.00;102784.88;5002012;28;20174;-86
2022/11/13 02:53:08;;;;;;;28.08;17.25;;;;;;;6.71;100.00;102782.25;5027031;28;20053;-88
2022/11/13 02:55:58;;;;;;;26.88;19.63;;;;;;;6.71;100.00;102784.88;5011500;28;20038;-86
2022/11/13 02:58:48;;;;;;;23.42;16.60;;;;;;;6.71;100.00;102776.09;5023780;28;20075;-86
2022/11/13 03:01:34;;;;;;;23.27;16.52;;;;;;;6.71;100.00;102786.56;5028627;28;20150;-86
2022/11/13 03:04:21;;;;;;;22.55;17.85;;;;;;;6.71;100.00;102790.13;5012929;28;20038;-86
2022/11/13 03:07:08;;;;;;;25.15;16.88;;;;;;;6.71;100.00;102794.44;5014884;28;20041;-86
2022/11/13 03:09:56;;;;;;;25.02;17.33;;;;;;;6.71;100.00;102789.19;5031056;28;20045;-86
2022/11/13 03:12:43;;;;;;;25.38;17.40;;;;;;;6.69;100.00;102783.91;5005873;28;20399;-86
2022/11/13 03:15:30;;;;;;;24.92;18.25;;;;;;;6.67;100.00;102787.25;5025844;28;20259;-86
2022/11/13 03:18:17;;;;;;;20.90;16.25;;;;;;;6.66;100.00;102788.09;5000020;28;20038;-86
2022/11/13 03:21:07;;;;;;;20.27;15.93;;;;;;;6.66;100.00;102798.56;5004949;28;20813;-86
2022/11/13 03:23:54;;;;;;;26.88;16.75;;;;;;;6.66;100.00;102790.69;5030482;28;20037;-85
2022/11/13 03:26:41;;;;;;;21.88;16.20;;;;;;;6.69;100.00;102796.06;5014928;28;20068;-86
2022/11/13 03:29:28;;;;;;;23.80;16.05;;;;;;;6.69;100.00;102799.63;5010007;28;20049;-86
2022/11/13 03:32:15;;;;;;;24.42;17.75;;;;;;;6.68;100.00;102791.69;4990995;28;20046;-86
2022/11/13 03:35:02;;;;;;;24.40;17.58;;;;;;;6.64;100.00;102794.13;5042182;28;20041;-87
2022/11/13 03:37:49;;;;;;;26.73;17.48;;;;;;;6.61;100.00;102787.84;4988273;28;20038;-86
2022/11/13 03:40:37;;;;;;;25.52;17.10;;;;;;;6.57;100.00;102799.88;5029534;28;20084;-86
2022/11/13 03:43:24;;;;;;;22.85;16.58;;;;;;;6.54;100.00;102793.56;5006401;28;20046;-86
2022/11/13 03:46:11;;;;;;;24.35;16.35;;;;;;;6.51;100.00;102794.34;4992873;28;20054;-87
2022/11/13 03:48:58;;;;;;;22.67;15.98;;;;;;;6.49;100.00;102782.00;5010484;28;20046;-86
2022/11/13 03:51:45;;;;;;;24.85;17.10;;;;;;;6.45;100.00;102773.06;5027109;28;20050;-86
2022/11/13 03:54:32;;;;;;;28.13;17.50;;;;;;;6.45;100.00;102775.69;5004602;28;20037;-86
2022/11/13 03:57:19;;;;;;;31.23;19.42;;;;;;;6.45;100.00;102775.69;5019735;28;20041;-86
2022/11/13 04:00:06;;;;;;;25.13;17.73;;;;;;;6.48;100.00;102769.69;5019288;28;20691;-86
2022/11/13 04:02:53;;;;;;;26.23;17.92;;;;;;;6.49;100.00;102755.78;5001628;28;20056;-86
2022/11/13 04:05:41;;;;;;;25.73;17.70;;;;;;;6.51;100.00;102755.03;5022971;28;20056;-86
2022/11/13 04:08:28;;;;;;;26.88;18.25;;;;;;;6.53;100.00;102753.41;5000797;28;20076;-86
2022/11/13 04:11:16;;;;;;;27.98;17.35;;;;;;;6.54;100.00;102755.22;5001357;28;20049;-87
2022/11/13 04:14:03;;;;;;;29.42;19.10;;;;;;;6.56;100.00;102763.13;5020307;28;20041;-86
2022/11/13 04:16:50;;;;;;;26.15;18.45;;;;;;;6.59;100.00;102758.94;5032062;28;20037;-86
2022/11/13 04:19:37;;;;;;;24.63;16.25;;;;;;;6.60;100.00;102759.84;5004695;28;20042;-86
2022/11/13 04:22:25;;;;;;;23.17;15.93;;;;;;;6.59;100.00;102753.69;5025181;28;20549;-86
2022/11/13 04:25:13;;;;;;;24.70;15.98;;;;;;;6.57;100.00;102747.47;5005444;28;20049;-87
2022/11/13 04:28:00;;;;;;;23.23;15.57;;;;;;;6.54;100.00;102747.34;5014400;28;20383;-87
2022/11/13 04:30:47;;;;;;;22.95;16.58;;;;;;;6.53;100.00;102750.78;5023020;28;20052;-87
2022/11/13 04:33:34;;;;;;;23.13;16.30;;;;;;;6.50;100.00;102748.00;5008914;28;20333;-86
2022/11/13 04:36:21;;;;;;;20.58;15.05;;;;;;;6.47;100.00;102750.47;5029185;28;20632;-86
2022/11/13 04:39:10;;;;;;;23.50;15.77;;;;;;;6.42;100.00;102751.97;5018010;28;20049;-87
2022/11/13 04:45:04;;;;;;;22.83;15.07;;;;;;;6.34;100.00;102756.81;5018778;28;20033;-87
2022/11/13 04:47:52;;;;;;;24.98;15.88;;;;;;;6.29;100.00;102750.44;5029885;28;20033;-84
2022/11/13 04:50:39;;;;;;;21.20;15.40;;;;;;;6.27;100.00;102751.19;5007083;28;20049;-87
2022/11/13 04:53:26;;;;;;;22.05;15.45;;;;;;;6.22;100.00;102743.09;5029110;28;20538;-86
2022/11/13 04:56:13;;;;;;;23.73;15.23;;;;;;;6.18;100.00;102752.50;4979214;28;20046;-87
2022/11/13 04:59:00;;;;;;;21.00;15.00;;;;;;;6.15;100.00;102744.50;5017075;28;20038;-87
2022/11/13 05:01:54;;;;;;;25.48;16.90;;;;;;;6.14;100.00;102741.78;4996916;28;20049;-86
2022/11/13 05:04:41;;;;;;;23.15;16.90;;;;;;;6.16;100.00;102738.44;5009965;28;20057;-86
2022/11/13 05:07:28;;;;;;;21.88;16.65;;;;;;;6.20;100.00;102752.56;5013293;28;21037;-86
2022/11/13 05:10:15;;;;;;;21.58;16.15;;;;;;;6.22;100.00;102748.34;5026041;28;20054;-86
2022/11/13 05:13:02;;;;;;;19.83;15.77;;;;;;;6.22;100.00;102746.59;4991621;28;20503;-86
2022/11/13 05:15:50;;;;;;;24.80;16.33;;;;;;;6.24;100.00;102744.97;5043231;28;20048;-85
2022/11/13 05:18:38;;;;;;;23.83;16.67;;;;;;;6.25;100.00;102740.63;5022964;28;20069;-85
2022/11/13 05:21:25;;;;;;;24.67;17.75;;;;;;;6.25;100.00;102748.47;5043048;28;20044;-85
2022/11/13 05:24:12;;;;;;;22.85;15.57;;;;;;;6.27;100.00;102738.09;5019757;28;20247;-86
2022/11/13 05:27:00;;;;;;;18.10;14.90;;;;;;;6.25;100.00;102741.50;5026850;28;20037;-86
2022/11/13 05:29:46;;;;;;;20.25;15.25;;;;;;;6.24;100.00;102742.34;5014573;28;20044;-86
2022/11/13 05:32:34;;;;;;;20.88;15.55;;;;;;;6.23;100.00;102742.25;5016088;28;20390;-86
2022/11/13 05:35:21;;;;;;;19.15;14.20;;;;;;;6.21;100.00;102736.94;5015295;28;20034;-86
2022/11/13 05:38:08;;;;;;;20.10;14.30;;;;;;;6.19;100.00;102733.34;5011722;28;20048;-86
2022/11/13 05:41:00;;;;;;;21.98;14.80;;;;;;;6.19;100.00;102727.22;5013191;28;20037;-86
2022/11/13 05:43:47;;;;;;;21.35;13.90;;;;;;;6.17;100.00;102729.75;5007091;28;20041;-86
2022/11/13 05:46:34;;;;;;;18.40;14.10;;;;;;;6.15;100.00;102733.13;5026998;28;20045;-86
2022/11/13 05:49:21;;;;;;;19.77;14.85;;;;;;;6.10;100.00;102729.38;5000866;28;20061;-86
2022/11/13 05:52:08;;;;;;;22.40;14.13;;;;;;;6.05;100.00;102732.66;5016431;28;20050;-86
2022/11/13 05:54:55;;;;;;;20.85;15.90;;;;;;;6.00;100.00;102731.50;5009151;28;20049;-86
2022/11/13 05:57:42;;;;;;;20.00;14.20;;;;;;;5.97;100.00;102726.13;5007461;28;20048;-86
2022/11/13 06:00:29;;;;;;;21.65;14.02;;;;;;;5.92;100.00;102718.81;5021181;28;20281;-86
2022/11/13 06:03:16;;;;;;;20.50;14.07;;;;;;;5.88;100.00;102717.75;5016220;28;20246;-86
2022/11/13 06:06:05;;;;;;;18.67;14.68;;;;;;;5.86;100.00;102703.69;5033235;28;20030;-87
2022/11/13 06:08:54;;;;;;;24.95;16.20;;;;;;;5.89;100.00;102700.34;5022197;28;20045;-87
2022/11/13 06:11:42;;;;;;;27.65;17.48;;;;;;;5.89;100.00;102693.38;5013138;28;20052;-87
2022/11/13 06:14:29;;;;;;;21.45;16.20;;;;;;;5.88;100.00;102693.28;5024185;28;20069;-86
2022/11/13 06:17:16;;;;;;;22.95;16.27;;;;;;;5.84;100.00;102690.53;4999045;28;20430;-86
2022/11/13 06:20:03;;;;;;;19.70;15.93;;;;;;;5.83;100.00;102693.97;5021420;28;20395;-87
2022/11/13 06:22:50;;;;;;;21.45;15.93;;;;;;;5.82;100.00;102679.09;5027657;28;20053;-86
2022/11/13 06:25:37;;;;;;;20.13;14.57;;;;;;;5.82;100.00;102675.56;5039528;28;20041;-86
2022/11/13 06:28:24;;;;;;;23.15;15.35;;;;;;;5.85;100.00;102678.34;4992867;28;20668;-86
2022/11/13 06:31:20;;;;;;;21.77;15.52;;;;;;;5.89;100.00;102682.03;5002371;28;20034;-86
2022/11/13 06:34:07;;;;;;;19.02;14.73;;;;;;;5.91;100.00;102681.28;5017802;28;20037;-87
2022/11/13 06:36:53;;;;;;;28.70;16.63;;;;;;;5.92;100.00;102679.56;5026482;28;20049;-86
2022/11/13 06:39:40;;;;;;;22.08;15.35;;;;;;;5.93;100.00;102681.34;5025873;28;20041;-86
2022/11/13 06:42:27;;;;;;;21.77;16.58;;;;;;;5.90;100.00;102673.34;5001584;28;20451;-86
2022/11/13 06:45:15;;;;;;;20.73;15.85;;;;;;;5.89;100.00;102680.28;4994683;28;20542;-86
2022/11/13 06:48:02;;;;;;;19.02;14.90;;;;;;;5.89;100.00;102682.03;5000842;28;20045;-86
2022/11/13 06:50:50;;;;;;;18.10;13.75;;;;;;;5.89;100.00;102688.13;5019467;28;20050;-86
2022/11/13 06:53:37;;;;;;;18.73;15.27;;;;;;;5.91;100.00;102685.63;5026084;28;20410;-86
2022/11/13 06:56:24;;;;;;;21.15;16.00;;;;;;;5.89;100.00;102689.88;5029093;28;20040;-86
2022/11/13 06:59:11;;;;;;;19.38;14.70;;;;;;;5.86;100.00;102694.13;4986835;28;20049;-86
2022/11/13 07:01:58;;;;;;;18.65;14.52;;;;;;;5.82;100.00;102692.19;5019537;28;20046;-85
2022/11/13 07:04:45;;;;;;;16.33;13.65;;;;;;;5.77;100.00;102693.66;5011974;28;20041;-86
2022/11/13 07:07:32;;;;;;;20.65;14.65;;;;;;;5.74;100.00;102695.19;5025918;28;20137;-86
2022/11/13 07:10:20;;;;;;;18.77;14.93;;;;;;;5.70;100.00;102694.13;5014661;28;20049;-86
2022/11/13 07:13:08;;;;;;;17.95;13.88;;;;;;;5.68;100.00;102690.53;5018378;28;20049;-87
2022/11/13 07:16:00;;;;;;;21.80;14.75;;;;;;;5.65;100.00;102696.53;4999135;28;20044;-87
2022/11/13 07:18:59;;;;;;;21.95;14.85;;;;;;;5.63;100.00;102692.94;5022180;28;20052;-86
2022/11/13 07:21:46;;;;;;;24.17;14.93;;;;;;;5.61;100.00;102691.94;5037207;28;20394;-85
2022/11/13 07:24:33;;;;;;;21.98;14.52;;;;;;;5.60;100.00;102684.03;5019410;28;20049;-85
2022/11/13 07:27:21;;;;;;;20.27;14.43;;;;;;;5.60;100.00;102682.28;5021516;28;20259;-86
2022/11/13 07:30:08;;;;;;;21.80;15.07;;;;;;;5.64;100.00;102680.75;5011890;28;20045;-86
2022/11/13 07:32:59;;;;;;;21.40;16.20;;;;;;;5.67;100.00;102691.34;5026766;28;20048;-86
2022/11/13 07:35:46;;;;;;;19.23;13.10;;;;;;;5.71;100.00;102693.34;5020976;28;20080;-86
2022/11/13 07:38:34;;;;;;;19.35;14.38;;;;;;;5.76;100.00;102691.84;5008643;28;20045;-85
2022/11/13 07:41:21;;;;;;;16.67;14.13;;;;;;;5.81;100.00;102694.72;5027434;28;20045;-86
2022/11/13 07:44:08;;;;;;;21.23;14.75;;;;;;;5.84;100.00;102690.53;5001152;28;20053;-86
2022/11/13 07:47:02;;;;;;;22.55;14.85;;;;;;;5.91;100.00;102696.06;4992778;28;20041;-86
2022/11/13 07:49:49;;;;;;;20.02;14.90;;;;;;;5.95;100.00;102685.88;5023581;28;20050;-86
2022/11/13 07:52:36;;;;;;;22.08;14.00;;;;;;;6.00;100.00;102681.78;5008692;28;20050;-86
2022/11/13 07:55:23;;;;;;;16.70;13.70;;;;;;;6.03;100.00;102681.94;5030876;28;20159;-86
2022/11/13 07:58:10;;;;;;;17.75;13.88;;;;;;;6.08;100.00;102674.31;5018228;28;20041;-87
2022/11/13 08:01:03;;;;;;;19.80;14.07;;;;;;;6.12;100.00;102673.66;5028751;28;20384;-86
2022/11/13 08:03:50;;;;;;;19.00;13.70;;;;;;;6.16;100.00;102674.69;5007522;28;20057;-86
2022/11/13 08:06:39;;;;;;;19.95;14.32;;;;;;;6.19;100.00;102675.75;5022338;28;20042;-86
2022/11/13 08:09:27;;;;;;;17.35;13.70;;;;;;;6.25;100.00;102668.19;5022485;28;20041;-86
2022/11/13 08:12:14;;;;;;;16.35;12.68;;;;;;;6.29;100.00;102669.25;5022858;28;20049;-86
2022/11/13 08:15:01;;;;;;;18.77;13.68;;;;;;;6.35;100.00;102655.56;5020500;28;20033;-85
2022/11/13 08:18:01;;;;;;;17.38;12.10;;;;;;;6.41;100.00;102664.66;5015684;28;20033;-86
2022/11/13 08:20:50;;;;;;;17.00;13.27;;;;;;;6.49;100.00;102657.16;5024408;28;20024;-85
2022/11/13 08:23:37;;;;;;;16.40;13.00;;;;;;;6.56;100.00;102666.19;5023477;28;20037;-85
2022/11/13 08:26:24;;;;;;;20.83;12.80;;;;;;;6.63;100.00;102668.31;5027043;28;20052;-84
2022/11/13 08:29:11;;;;;;;14.05;12.15;;;;;;;6.69;100.00;102659.84;5011620;28;20380;-84
2022/11/13 08:31:58;;;;;;;15.80;11.88;;;;;;;6.74;100.00;102658.34;5019943;28;20269;-85
2022/11/13 08:34:45;;;;;;;14.93;11.43;;;;;;;6.77;100.00;102648.03;5007957;28;20101;-85
2022/11/13 08:37:32;;;;;;;16.17;11.23;;;;;;;6.82;100.00;102649.13;5023240;28;20049;-84
2022/11/13 08:40:19;;;;;;;15.90;11.52;;;;;;;6.86;100.00;102655.41;5024306;28;20041;-86
2022/11/13 08:43:06;;;;;;;16.25;11.38;;;;;;;6.91;100.00;102654.78;5013629;28;20052;-85
2022/11/13 08:45:54;;;;;;;19.23;11.38;;;;;;;6.98;100.00;102643.78;5019532;28;20145;-85
2022/11/13 08:48:41;;;;;;;13.95;10.75;;;;;;;7.06;100.00;102645.88;4995153;28;20144;-85
2022/11/13 08:51:28;;;;;;;14.90;10.85;;;;;;;7.11;100.00;102637.38;5003487;28;20259;-85
2022/11/13 08:54:15;;;;;;;14.38;11.38;;;;;;;7.19;100.00;102625.50;5004287;28;20105;-85
2022/11/13 08:57:05;;;;;;;14.88;10.93;;;;;;;7.25;100.00;102624.00;5034106;28;20049;-86
2022/11/13 08:59:52;;;;;;;14.35;10.55;;;;;;;7.31;100.00;102626.91;5023055;28;20049;-85
2022/11/13 09:02:46;;;;;;;15.48;11.05;;;;;;;7.37;100.00;102622.84;5017917;28;20053;-85
2022/11/13 09:05:33;;;;;;;14.52;10.20;;;;;;;7.43;100.00;102609.09;4996858;28;20389;-84
2022/11/13 09:08:20;;;;;;;15.55;11.82;;;;;;;7.52;100.00;102606.84;5007854;28;20219;-85
2022/11/13 09:11:08;;;;;;;14.65;11.27;;;;;;;7.59;100.00;102598.44;5010105;28;20042;-86
2022/11/13 09:13:54;;;;;;;13.23;10.52;;;;;;;7.71;100.00;102602.41;5027019;28;20042;-85
2022/11/13 09:16:41;;;;;;;16.63;11.35;;;;;;;7.81;100.00;102594.13;5030539;28;20038;-84
2022/11/13 09:19:28;;;;;;;16.27;11.65;;;;;;;7.93;100.00;102596.38;5000349;28;20045;-85
2022/11/13 09:22:15;;;;;;;15.45;12.10;;;;;;;8.03;100.00;102603.78;4989637;28;20037;-86
2022/11/13 09:25:03;;;;;;;17.48;12.63;;;;;;;8.15;100.00;102601.66;5022254;28;20056;-86
2022/11/13 09:27:59;;;;;;;16.23;12.77;;;;;;;8.22;100.00;102600.19;5004385;28;20041;-87
2022/11/13 09:30:46;;;;;;;20.60;12.93;;;;;;;8.33;100.00;102603.25;5019240;28;20053;-86
2022/11/13 09:33:34;;;;;;;15.10;11.30;;;;;;;8.40;100.00;102607.91;5011431;28;20052;-86
2022/11/13 09:36:21;;;;;;;18.05;11.32;;;;;;;8.49;100.00;102597.81;5007851;28;20064;-86
2022/11/13 09:39:08;;;;;;;12.40;10.43;;;;;;;8.57;100.00;102599.00;5011320;28;20049;-86
2022/11/13 09:42:17;;;;;;;16.15;11.43;;;;;;;8.63;100.00;102605.34;5026259;28;20032;-85
2022/11/13 09:45:11;;;;;;;12.45;10.32;;;;;;;8.65;100.00;102593.16;5027163;28;20049;-84
2022/11/13 09:48:27;;;;;;;16.45;10.65;;;;;;;8.70;100.00;102602.13;5016489;28;20050;-86
2022/11/13 09:51:23;;;;;;;12.48;10.00;;;;;;;8.74;100.00;102606.66;5000189;28;24606;-84
2022/11/13 09:54:13;;;;;;;14.43;10.68;;;;;;;8.75;100.00;102601.47;5019258;28;20041;-85
2022/11/13 09:57:14;;;;;;;13.35;10.35;;;;;;;8.77;100.00;102599.78;5017802;28;20050;-85
2022/11/13 10:00:09;;;;;;;11.43;10.20;;;;;;;8.78;100.00;102598.06;5012398;28;20049;-87
2022/11/13 10:03:02;;;;;;;13.93;9.20;;;;;;;8.75;100.00;102595.28;5020040;28;20062;-85
2022/11/13 10:06:17;;;;;;;11.68;9.02;;;;;;;8.76;100.00;102600.63;5020948;28;20041;-86
2022/11/13 10:09:24;;;;;;;9.75;8.73;;;;;;;8.78;100.00;102601.56;5003675;28;20053;-84
2022/11/13 10:12:13;;;;;;;11.30;9.38;;;;;;;8.77;100.00;102599.78;5016621;28;20057;-84
2022/11/13 10:15:02;;;;;;;11.00;9.48;;;;;;;8.81;100.00;102600.81;4996958;28;20107;-84
2022/11/13 10:17:59;;;;;;;10.77;9.02;;;;;;;8.86;100.00;102588.72;5031781;28;20049;-86
2022/11/13 10:20:50;;;;;;;13.45;9.23;;;;;;;8.92;100.00;102588.06;5016380;28;20034;-84
2022/11/13 10:23:37;;;;;;;;;;;;;;;8.93;100.00;102597.75;5006068;28;20037;-85
2022/11/13 10:26:27;;;;;;;10.95;9.30;;;;;;;8.95;100.00;102593.44;5021145;28;19921;-84
2022/11/13 10:29:17;;;;;;;14.70;9.88;;;;;;;8.98;100.00;102597.09;5025372;28;20040;-84
2022/11/13 10:32:22;;;;;;;13.23;9.63;;;;;;;9.02;100.00;102578.78;5016555;28;20041;-84
2022/11/13 10:35:27;;;;;;;14.63;10.10;;;;;;;9.05;100.00;102578.91;5024269;28;20049;-84
2022/11/13 10:38:43;;;;;;;11.75;8.90;;;;;;;9.06;100.00;102568.44;5014573;28;20042;-84
2022/11/13 10:41:29;;;;;;;14.02;9.18;;;;;;;9.07;100.00;102567.59;5019623;28;20046;-85
2022/11/13 10:44:20;;;;;;;14.20;9.82;;;;;;;9.13;100.00;102569.53;5027810;28;20045;-84
2022/11/13 10:47:19;;;;;;;14.63;10.68;;;;;;;9.19;100.00;102569.78;5012966;28;20558;-84
2022/11/13 10:50:31;;;;;;;12.10;10.10;;;;;;;9.26;100.00;102571.81;5024450;28;20052;-84
2022/11/13 10:53:18;;;;;;;13.35;9.18;;;;;;;9.32;100.00;102566.75;5024530;28;20046;-84
2022/11/13 10:56:19;;;;;;;12.45;9.63;;;;;;;9.37;100.00;102561.66;5008666;28;20041;-84
2022/11/13 10:59:13;;;;;;;14.27;10.27;;;;;;;9.40;100.00;102547.72;5023720;28;20603;-85
2022/11/13 11:02:14;;;;;;;11.77;9.82;;;;;;;9.42;100.00;102556.56;5008335;28;20050;-84
2022/11/13 11:05:14;;;;;;;12.32;10.18;;;;;;;9.40;100.00;102543.34;5016851;28;20038;-84
2022/11/13 11:08:08;;;;;;;10.90;9.75;;;;;;;9.39;100.00;102548.56;5017065;28;20053;-85
2022/11/13 11:14:31;;;;;;;11.27;8.75;;;;;;;9.45;100.00;102535.59;5017589;28;20049;-86
2022/11/13 11:17:21;;;;;;;11.25;8.68;;;;;;;9.48;100.00;102533.09;5020216;28;20113;-85
2022/11/13 11:20:37;;;;;;;12.27;8.43;;;;;;;9.54;100.00;102536.81;5014929;28;20058;-85
2022/11/13 11:23:46;;;;;;;9.10;7.35;;;;;;;9.66;100.00;102530.19;5012750;28;20068;-83
2022/11/13 11:26:52;;;;;;;9.60;6.95;;;;;;;9.75;100.00;102518.25;4998664;28;20491;-85
2022/11/13 11:29:57;;;;;;;8.38;7.13;;;;;;;9.88;100.00;102511.63;5015854;28;20538;-83
2022/11/13 11:33:00;;;;;;;8.73;6.95;;;;;;;9.95;100.00;102511.00;5008921;28;20053;-83
2022/11/13 11:35:49;;;;;;;8.38;7.20;;;;;;;10.02;100.00;102506.81;5030226;28;20045;-82
2022/11/13 11:38:51;;;;;;;9.15;8.18;;;;;;;10.06;100.00;102508.72;5013409;28;20064;-84
2022/11/13 11:41:45;;;;;;;8.30;6.97;;;;;;;10.05;100.00;102501.63;4996488;28;20076;-84
2022/11/13 11:44:56;;;;;;;8.73;6.90;;;;;;;10.08;100.00;102495.59;5024723;28;20033;-82
2022/11/13 11:47:44;;;;;;;9.90;8.07;;;;;;;10.13;100.00;102501.88;5011455;28;20530;-83
2022/11/13 11:50:40;;;;;;;9.02;8.05;;;;;;;10.20;100.00;102497.72;5026216;28;20061;-83
2022/11/13 11:53:44;;;;;;;11.30;9.10;;;;;;;10.30;100.00;102492.81;5031737;28;20042;-84
2022/11/13 11:56:39;;;;;;;11.68;10.40;;;;;;;10.37;100.00;102485.97;5002522;28;20037;-84
2022/11/13 11:59:37;;;;;;;11.77;8.75;;;;;;;10.47;100.00;102487.13;5020536;28;20387;-84
2022/11/13 12:02:44;;;;;;;15.60;10.05;;;;;;;10.52;100.00;102493.44;5016743;28;20538;-85
2022/11/13 12:05:57;;;;;;;11.10;7.97;;;;;;;10.58;100.00;102480.44;5018579;28;20037;-85
2022/11/13 12:09:07;;;;;;;9.20;6.97;;;;;;;10.68;100.00;102486.88;5008987;28;20526;-84
2022/11/13 12:12:00;;;;;;;9.75;6.75;;;;;;;10.72;100.00;102471.19;5001727;28;20037;-84
2022/11/13 12:15:07;;;;;;;9.02;8.02;;;;;;;10.78;100.00;102459.94;5019644;28;20049;-84
2022/11/13 12:18:18;;;;;;;8.35;7.47;;;;;;;10.84;100.00;102460.09;5014043;28;20045;-84
2022/11/13 12:21:06;;;;;;;10.27;8.00;;;;;;;10.78;100.00;102452.03;5026432;28;20030;-82
2022/11/13 12:24:00;;;;;;;10.13;7.95;;;;;;;10.73;100.00;102451.00;5027030;28;20037;-85
2022/11/13 12:26:50;;;;;;;8.63;7.72;;;;;;;10.67;100.00;102445.56;5014005;28;20041;-84
2022/11/13 12:30:14;;;;;;;8.48;7.60;;;;;;;10.64;100.00;102440.19;5014848;28;20042;-84
2022/11/13 12:33:22;;;;;;;9.65;8.35;;;;;;;10.63;100.00;102441.94;5018554;28;20033;-84
2022/11/13 12:36:11;;;;;;;9.38;8.20;;;;;;;10.66;100.00;102435.84;5020484;28;20050;-86
2022/11/13 12:39:19;;;;;;;9.25;7.63;;;;;;;10.65;100.00;102431.44;5019441;28;20306;-83
2022/11/13 12:42:21;;;;;;;9.30;7.78;;;;;;;10.68;100.00;102436.78;5002231;28;20046;-86
2022/11/13 12:45:45;;;;;;;10.68;7.82;;;;;;;10.68;100.00;102413.03;5007980;28;20575;-86
2022/11/13 12:48:33;;;;;;;9.07;7.45;;;;;;;10.70;100.00;102424.56;5020821;28;20399;-84
2022/11/13 12:51:20;;;;;;;11.43;7.50;;;;;;;10.68;100.00;102405.13;5014371;28;22636;-85
2022/11/13 12:54:09;;;;;;;8.07;7.28;;;;;;;10.70;100.00;102408.75;5008510;28;20046;-85
2022/11/13 12:57:16;;;;;;;10.43;7.15;;;;;;;10.74;100.00;102407.97;5009118;28;20041;-84
2022/11/13 13:00:21;;;;;;;7.97;6.70;;;;;;;10.78;100.00;102412.47;5020054;28;20045;-86
2022/11/13 13:03:22;;;;;;;7.90;6.45;;;;;;;10.82;100.00;102405.53;5026641;28;20266;-84
2022/11/13 13:06:48;;;;;;;7.13;6.40;;;;;;;10.84;100.00;102406.47;5012556;28;20671;-84
2022/11/13 13:09:50;;;;;;;7.85;5.75;;;;;;;10.85;100.00;102397.69;5032675;28;20045;-85